createdAt,value
2016-05-21T00:00:32.076Z,0
2016-05-21T00:01:32.047Z,0
2016-05-21T00:02:31.925Z,0
2016-05-21T00:03:32.053Z,0
2016-05-21T00:04:32.055Z,0
2016-05-21T00:05:31.902Z,0
2016-05-21T00:06:32.044Z,0
2016-05-21T00:07:31.892Z,0
2016-05-21T00:08:32.050Z,0
2016-05-21T00:09:32.038Z,0
2016-05-21T00:10:32.040Z,0
2016-05-21T00:11:32.492Z,0
2016-05-21T00:12:31.902Z,0
2016-05-21T00:13:31.935Z,0
2016-05-21T00:14:32.094Z,0
2016-05-21T00:15:32.097Z,0
2016-05-21T00:16:31.812Z,0
2016-05-21T00:17:31.960Z,0
2016-05-21T00:18:32.125Z,0
2016-05-21T00:19:32.133Z,0
2016-05-21T00:20:31.985Z,0
2016-05-21T00:21:31.976Z,0
2016-05-21T00:22:32.138Z,0
2016-05-21T00:23:32.173Z,0
2016-05-21T00:24:32.132Z,0
2016-05-21T00:25:32.136Z,0
2016-05-21T00:26:32.828Z,0
2016-05-21T00:27:34.191Z,0
2016-05-21T00:28:31.975Z,0
2016-05-21T00:29:32.072Z,0
2016-05-21T00:30:32.434Z,0
2016-05-21T00:31:32.282Z,0
2016-05-21T00:32:32.020Z,0
2016-05-21T00:33:32.131Z,0
2016-05-21T00:34:32.228Z,0
2016-05-21T00:35:32.778Z,0
2016-05-21T00:36:33.139Z,0
2016-05-21T00:37:32.189Z,0
2016-05-21T00:38:46.395Z,0
2016-05-21T00:39:31.975Z,0
2016-05-21T00:40:32.666Z,0
2016-05-21T00:41:34.090Z,0
2016-05-21T00:42:32.108Z,0
2016-05-21T00:43:31.970Z,0
2016-05-21T00:44:32.801Z,0
2016-05-21T00:45:32.492Z,0
2016-05-21T00:46:32.120Z,0
2016-05-21T00:47:32.185Z,0
2016-05-21T00:48:32.125Z,0
2016-05-21T00:49:35.252Z,0
2016-05-21T00:50:35.083Z,0
2016-05-21T00:51:33.633Z,0
2016-05-21T00:52:32.104Z,0
2016-05-21T00:53:32.607Z,0
2016-05-21T00:54:32.312Z,0
2016-05-21T00:55:32.096Z,0
2016-05-21T00:56:32.677Z,0
2016-05-21T00:57:32.117Z,0
2016-05-21T00:58:32.089Z,0
2016-05-21T00:59:32.092Z,0
2016-05-21T01:00:32.095Z,0
2016-05-21T01:01:32.113Z,0
2016-05-21T01:02:31.943Z,0
2016-05-21T01:03:31.946Z,0
2016-05-21T01:04:32.090Z,0
2016-05-21T01:05:32.108Z,0
2016-05-21T01:06:31.923Z,0
2016-05-21T01:07:31.770Z,0
2016-05-21T01:08:31.928Z,0
2016-05-21T01:09:31.931Z,0
2016-05-21T01:10:32.074Z,0
2016-05-21T01:11:32.561Z,0
2016-05-21T01:12:31.939Z,0
2016-05-21T01:13:32.082Z,0
2016-05-21T01:14:32.070Z,0
2016-05-21T01:15:31.931Z,0
2016-05-21T01:16:31.934Z,0
2016-05-21T01:17:32.062Z,0
2016-05-21T01:18:32.080Z,0
2016-05-21T01:19:31.927Z,0
2016-05-21T01:20:32.055Z,0
2016-05-21T01:21:32.057Z,0
2016-05-21T01:22:31.904Z,0
2016-05-21T01:23:32.063Z,0
2016-05-21T01:24:32.940Z,0
2016-05-21T01:25:32.068Z,0
2016-05-21T01:26:31.773Z,0
2016-05-21T01:27:32.057Z,0
2016-05-21T01:28:31.920Z,0
2016-05-21T01:29:32.063Z,0
2016-05-21T01:30:32.051Z,0
2016-05-21T01:31:32.053Z,0
2016-05-21T01:32:32.056Z,0
2016-05-21T01:33:31.746Z,0
2016-05-21T01:34:31.889Z,0
2016-05-21T01:35:31.892Z,0
2016-05-21T01:36:32.051Z,0
2016-05-21T01:37:32.053Z,0
2016-05-21T01:38:32.056Z,0
2016-05-21T01:39:32.043Z,0
2016-05-21T01:40:32.030Z,0
2016-05-21T01:41:31.939Z,0
2016-05-21T01:42:31.895Z,0
2016-05-21T01:43:31.898Z,0
2016-05-21T01:44:32.042Z,0
2016-05-21T01:45:33.637Z,0
2016-05-21T01:46:32.000Z,0
2016-05-21T01:47:32.033Z,0
2016-05-21T01:48:46.208Z,0
2016-05-21T01:49:32.727Z,0
2016-05-21T01:50:32.025Z,0
2016-05-21T01:51:31.966Z,0
2016-05-21T01:52:31.874Z,0
2016-05-21T01:53:32.033Z,0
2016-05-21T01:54:32.568Z,0
2016-05-21T01:55:33.868Z,0
2016-05-21T01:56:32.230Z,0
2016-05-21T01:57:32.013Z,0
2016-05-21T01:58:32.563Z,0
2016-05-21T01:59:34.785Z,0
2016-05-21T02:00:31.990Z,0
2016-05-21T02:01:31.915Z,0
2016-05-21T02:02:32.932Z,0
2016-05-21T02:03:32.685Z,0
2016-05-21T02:04:32.048Z,0
2016-05-21T02:05:31.909Z,0
2016-05-21T02:06:31.850Z,0
2016-05-21T02:07:32.025Z,0
2016-05-21T02:08:33.573Z,0
2016-05-21T02:09:33.545Z,0
2016-05-21T02:10:31.861Z,0
2016-05-21T02:11:33.457Z,0
2016-05-21T02:12:32.773Z,0
2016-05-21T02:13:32.041Z,0
2016-05-21T02:14:31.997Z,0
2016-05-21T02:15:31.922Z,0
2016-05-21T02:16:32.002Z,0
2016-05-21T02:17:31.989Z,0
2016-05-21T02:18:31.991Z,0
2016-05-21T02:19:31.994Z,0
2016-05-21T02:20:31.841Z,0
2016-05-21T02:21:31.984Z,0
2016-05-21T02:22:31.986Z,0
2016-05-21T02:23:32.021Z,0
2016-05-21T02:24:31.992Z,0
2016-05-21T02:25:31.995Z,0
2016-05-21T02:26:32.169Z,0
2016-05-21T02:27:31.984Z,0
2016-05-21T02:28:31.675Z,0
2016-05-21T02:29:31.974Z,0
2016-05-21T02:30:31.977Z,0
2016-05-21T02:31:31.980Z,0
2016-05-21T02:32:31.982Z,0
2016-05-21T02:33:31.985Z,0
2016-05-21T02:34:31.972Z,0
2016-05-21T02:35:31.819Z,0
2016-05-21T02:36:31.961Z,0
2016-05-21T02:37:31.652Z,0
2016-05-21T02:38:31.968Z,0
2016-05-21T02:39:31.970Z,0
2016-05-21T02:40:31.973Z,0
2016-05-21T02:41:31.819Z,0
2016-05-21T02:42:31.962Z,0
2016-05-21T02:43:31.653Z,0
2016-05-21T02:44:31.655Z,0
2016-05-21T02:45:31.970Z,0
2016-05-21T02:46:31.957Z,0
2016-05-21T02:47:31.803Z,0
2016-05-21T02:48:31.947Z,0
2016-05-21T02:49:31.950Z,0
2016-05-21T02:50:31.953Z,0
2016-05-21T02:51:32.205Z,0
2016-05-21T02:52:32.099Z,0
2016-05-21T02:53:31.961Z,0
2016-05-21T02:54:31.947Z,0
2016-05-21T02:55:32.185Z,0
2016-05-21T02:56:32.391Z,0
2016-05-21T02:57:31.784Z,0
2016-05-21T02:58:31.943Z,0
2016-05-21T02:59:31.946Z,0
2016-05-21T03:00:31.933Z,0
2016-05-21T03:01:31.935Z,0
2016-05-21T03:02:31.781Z,0
2016-05-21T03:03:33.035Z,0
2016-05-21T03:04:32.896Z,0
2016-05-21T03:05:31.790Z,0
2016-05-21T03:06:46.104Z,0
2016-05-21T03:07:45.951Z,5
2016-05-21T03:08:32.376Z,5
2016-05-21T03:09:32.488Z,5
2016-05-21T03:10:32.084Z,5
2016-05-21T03:11:31.587Z,10
2016-05-21T03:12:31.934Z,10
2016-05-21T03:14:46.095Z,15
2016-05-21T03:15:46.301Z,15
2016-05-21T03:16:31.913Z,15
2016-05-21T03:18:34.106Z,20
2016-05-21T03:19:33.077Z,20
2016-05-21T03:20:31.925Z,25
2016-05-21T03:21:32.177Z,25
2016-05-21T03:22:32.008Z,30
2016-05-21T03:23:32.261Z,30
2016-05-21T03:24:32.247Z,30
2016-05-21T03:25:31.750Z,35
2016-05-21T03:26:31.971Z,35
2016-05-21T03:27:33.334Z,35
2016-05-21T03:28:31.914Z,40
2016-05-21T03:29:31.916Z,35
2016-05-21T03:30:32.623Z,35
2016-05-21T03:31:31.907Z,35
2016-05-21T03:32:32.596Z,35
2016-05-21T03:33:32.724Z,35
2016-05-21T03:34:32.165Z,35
2016-05-21T03:35:31.902Z,35
2016-05-21T03:36:31.732Z,35
2016-05-21T03:37:31.595Z,35
2016-05-21T03:38:31.738Z,35
2016-05-21T03:39:31.740Z,35
2016-05-21T03:40:31.743Z,35
2016-05-21T03:41:31.746Z,40
2016-05-21T03:42:31.748Z,40
2016-05-21T03:43:31.876Z,45
2016-05-21T03:44:31.895Z,45
2016-05-21T03:45:31.881Z,45
2016-05-21T03:46:31.728Z,50
2016-05-21T03:47:31.872Z,50
2016-05-21T03:48:31.875Z,50
2016-05-21T03:49:31.720Z,50
2016-05-21T03:50:31.880Z,45
2016-05-21T03:51:31.711Z,45
2016-05-21T03:52:31.869Z,45
2016-05-21T03:53:31.872Z,45
2016-05-21T03:54:31.719Z,45
2016-05-21T03:55:31.565Z,45
2016-05-21T03:56:32.239Z,50
2016-05-21T03:57:31.867Z,55
2016-05-21T03:58:31.886Z,55
2016-05-21T03:59:31.872Z,60
2016-05-21T04:00:31.547Z,65
2016-05-21T04:01:31.862Z,70
2016-05-21T04:02:31.865Z,70
2016-05-21T04:03:31.712Z,75
2016-05-21T04:04:31.855Z,75
2016-05-21T04:05:31.857Z,80
2016-05-21T04:06:31.845Z,85
2016-05-21T04:07:31.707Z,90
2016-05-21T04:08:31.865Z,95
2016-05-21T04:09:31.853Z,100
2016-05-21T04:10:31.840Z,100
2016-05-21T04:11:32.076Z,110
2016-05-21T04:12:31.689Z,110
2016-05-21T04:13:31.692Z,115
2016-05-21T04:14:31.851Z,120
2016-05-21T04:15:31.870Z,120
2016-05-21T04:16:31.856Z,120
2016-05-21T04:17:31.843Z,120
2016-05-21T04:18:31.689Z,120
2016-05-21T04:19:31.833Z,125
2016-05-21T04:20:31.836Z,130
2016-05-21T04:21:31.854Z,135
2016-05-21T04:22:46.466Z,140
2016-05-21T04:23:31.687Z,145
2016-05-21T04:24:31.908Z,160
2016-05-21T04:25:31.975Z,165
2016-05-21T04:26:31.866Z,180
2016-05-21T04:27:32.135Z,190
2016-05-21T04:28:31.841Z,195
2016-05-21T04:29:31.828Z,195
2016-05-21T04:30:31.675Z,200
2016-05-21T04:31:32.630Z,210
2016-05-21T04:32:32.821Z,225
2016-05-21T04:33:31.823Z,240
2016-05-21T04:34:46.154Z,250
2016-05-21T04:35:32.563Z,255
2016-05-21T04:36:35.518Z,265
2016-05-21T04:37:33.600Z,270
2016-05-21T04:38:31.821Z,275
2016-05-21T04:39:31.668Z,280
2016-05-21T04:40:31.827Z,290
2016-05-21T04:41:32.642Z,295
2016-05-21T04:42:32.051Z,300
2016-05-21T04:43:31.678Z,295
2016-05-21T04:44:31.822Z,280
2016-05-21T04:45:31.825Z,265
2016-05-21T04:46:34.281Z,250
2016-05-21T04:47:33.486Z,230
2016-05-21T04:48:32.254Z,220
2016-05-21T04:49:32.898Z,210
2016-05-21T04:50:31.979Z,215
2016-05-21T04:51:31.512Z,215
2016-05-21T04:52:31.672Z,275
2016-05-21T04:53:31.877Z,240
2016-05-21T04:54:31.817Z,220
2016-05-21T04:55:31.852Z,225
2016-05-21T04:56:31.917Z,230
2016-05-21T04:57:31.825Z,245
2016-05-21T04:58:31.546Z,260
2016-05-21T04:59:31.519Z,270
2016-05-21T05:00:31.677Z,270
2016-05-21T05:01:31.524Z,275
2016-05-21T05:02:31.838Z,280
2016-05-21T05:03:31.544Z,285
2016-05-21T05:04:31.672Z,300
2016-05-21T05:05:31.847Z,315
2016-05-21T05:06:31.677Z,330
2016-05-21T05:07:31.696Z,355
2016-05-21T05:08:31.698Z,385
2016-05-21T05:09:31.843Z,405
2016-05-21T05:10:31.845Z,440
2016-05-21T05:11:32.379Z,460
2016-05-21T05:12:31.866Z,500
2016-05-21T05:13:31.853Z,490
2016-05-21T05:14:31.856Z,505
2016-05-21T05:15:31.718Z,625
2016-05-21T05:16:31.705Z,615
2016-05-21T05:17:31.707Z,710
2016-05-21T05:18:31.710Z,610
2016-05-21T05:19:31.712Z,570
2016-05-21T05:20:31.715Z,755
2016-05-21T05:21:31.718Z,715
2016-05-21T05:22:31.720Z,590
2016-05-21T05:23:31.880Z,635
2016-05-21T05:24:31.742Z,700
2016-05-21T05:25:32.088Z,725
2016-05-21T05:26:32.497Z,800
2016-05-21T05:27:31.734Z,800
2016-05-21T05:28:31.908Z,585
2016-05-21T05:29:31.912Z,585
2016-05-21T05:30:31.758Z,585
2016-05-21T05:31:31.916Z,560
2016-05-21T05:32:31.919Z,560
2016-05-21T05:33:31.922Z,570
2016-05-21T05:34:31.785Z,610
2016-05-21T05:35:31.787Z,1000
2016-05-21T05:36:31.947Z,950
2016-05-21T05:37:31.792Z,840
2016-05-21T05:38:31.795Z,830
2016-05-21T05:39:31.970Z,960
2016-05-21T05:40:31.832Z,985
2016-05-21T05:41:33.146Z,985
2016-05-21T05:42:33.384Z,870
2016-05-21T05:43:46.434Z,1010
2016-05-21T05:44:32.155Z,950
2016-05-21T05:45:32.376Z,765
2016-05-21T05:46:32.020Z,755
2016-05-21T05:47:32.491Z,790
2016-05-21T05:48:32.040Z,740
2016-05-21T05:49:31.903Z,805
2016-05-21T05:50:33.656Z,795
2016-05-21T05:51:32.845Z,810
2016-05-21T05:52:33.239Z,965
2016-05-21T05:53:46.226Z,1235
2016-05-21T05:54:33.103Z,1215
2016-05-21T05:55:34.169Z,895
2016-05-21T05:56:32.344Z,1275
2016-05-21T05:57:32.175Z,1175
2016-05-21T05:58:33.333Z,990
2016-05-21T05:59:32.836Z,1060
2016-05-21T06:00:32.229Z,1345
2016-05-21T06:01:32.169Z,1250
2016-05-21T06:02:32.032Z,1130
2016-05-21T06:03:32.206Z,1095
2016-05-21T06:04:33.991Z,775
2016-05-21T06:05:32.805Z,665
2016-05-21T06:06:32.246Z,560
2016-05-21T06:07:32.248Z,485
2016-05-21T06:08:32.376Z,440
2016-05-21T06:09:32.910Z,415
2016-05-21T06:10:32.272Z,390
2016-05-21T06:11:32.946Z,375
2016-05-21T06:12:31.996Z,365
2016-05-21T06:13:32.327Z,360
2016-05-21T06:14:32.173Z,350
2016-05-21T06:15:32.035Z,340
2016-05-21T06:16:32.351Z,330
2016-05-21T06:17:32.212Z,320
2016-05-21T06:18:32.371Z,315
2016-05-21T06:19:32.374Z,300
2016-05-21T06:20:32.251Z,285
2016-05-21T06:21:32.426Z,285
2016-05-21T06:22:32.257Z,275
2016-05-21T06:23:32.120Z,265
2016-05-21T06:24:32.278Z,240
2016-05-21T06:25:32.312Z,225
2016-05-21T06:26:32.362Z,205
2016-05-21T06:27:32.474Z,195
2016-05-21T06:28:32.320Z,190
2016-05-21T06:29:32.480Z,190
2016-05-21T06:30:32.482Z,190
2016-05-21T06:31:32.500Z,200
2016-05-21T06:32:32.362Z,220
2016-05-21T06:33:32.365Z,255
2016-05-21T06:34:32.524Z,290
2016-05-21T06:35:32.527Z,330
2016-05-21T06:36:32.561Z,380
2016-05-21T06:37:32.391Z,430
2016-05-21T06:38:32.410Z,475
2016-05-21T06:39:32.413Z,510
2016-05-21T06:40:32.572Z,530
2016-05-21T06:41:32.620Z,535
2016-05-21T06:42:32.593Z,540
2016-05-21T06:43:32.438Z,535
2016-05-21T06:44:32.598Z,540
2016-05-21T06:45:32.600Z,565
2016-05-21T06:46:32.618Z,620
2016-05-21T06:47:32.621Z,695
2016-05-21T06:48:32.624Z,775
2016-05-21T06:49:32.487Z,855
2016-05-21T06:50:32.629Z,845
2016-05-21T06:51:32.492Z,940
2016-05-21T06:52:32.494Z,925
2016-05-21T06:53:32.653Z,1215
2016-05-21T06:54:32.672Z,1590
2016-05-21T06:55:32.675Z,1750
2016-05-21T06:56:33.114Z,1895
2016-05-21T06:57:32.695Z,1785
2016-05-21T06:58:32.698Z,1870
2016-05-21T06:59:34.247Z,1545
2016-05-21T07:00:33.703Z,1960
2016-05-21T07:01:32.831Z,1770
2016-05-21T07:02:33.583Z,1805
2016-05-21T07:03:32.758Z,1855
2016-05-21T07:04:33.089Z,2285
2016-05-21T07:05:32.655Z,2255
2016-05-21T07:06:32.782Z,2380
2016-05-21T07:07:32.800Z,2425
2016-05-21T07:08:32.803Z,1940
2016-05-21T07:09:34.868Z,1105
2016-05-21T07:10:32.807Z,2120
2016-05-21T07:11:32.858Z,2430
2016-05-21T07:13:32.863Z,1955
2016-05-21T07:14:32.976Z,1745
2016-05-21T07:15:32.915Z,1820
2016-05-21T07:16:32.902Z,1780
2016-05-21T07:17:33.421Z,2005
2016-05-21T07:18:33.862Z,1835
2016-05-21T07:19:33.020Z,1610
2016-05-21T07:20:33.585Z,1810
2016-05-21T07:21:32.979Z,1605
2016-05-21T07:22:32.997Z,1200
2016-05-21T07:23:33.687Z,1235
2016-05-21T07:24:34.798Z,1440
2016-05-21T07:25:33.037Z,1685
2016-05-21T07:26:34.133Z,1320
2016-05-21T07:27:33.822Z,1355
2016-05-21T07:28:33.154Z,1255
2016-05-21T07:29:32.953Z,1190
2016-05-21T07:30:32.972Z,1170
2016-05-21T07:31:33.147Z,1165
2016-05-21T07:32:33.008Z,1055
2016-05-21T07:33:33.167Z,1050
2016-05-21T07:34:33.200Z,1170
2016-05-21T07:35:33.047Z,1150
2016-05-21T07:36:33.222Z,1130
2016-05-21T07:37:33.083Z,1215
2016-05-21T07:38:33.102Z,1490
2016-05-21T07:39:33.105Z,1630
2016-05-21T07:40:33.280Z,2030
2016-05-21T07:41:33.626Z,1595
2016-05-21T07:42:33.144Z,1450
2016-05-21T07:43:33.319Z,1495
2016-05-21T07:44:33.181Z,1570
2016-05-21T07:45:33.355Z,1565
2016-05-21T07:46:33.374Z,1540
2016-05-21T07:47:33.408Z,2040
2016-05-21T07:48:33.410Z,2065
2016-05-21T07:49:33.429Z,2185
2016-05-21T07:50:33.291Z,2245
2016-05-21T07:51:33.450Z,2265
2016-05-21T07:52:33.467Z,2250
2016-05-21T07:53:33.487Z,2240
2016-05-21T07:54:33.348Z,2330
2016-05-21T07:55:33.523Z,2280
2016-05-21T07:56:33.557Z,2155
2016-05-21T07:57:33.559Z,1965
2016-05-21T07:58:33.578Z,2135
2016-05-21T07:59:33.597Z,2090
2016-05-21T08:00:33.615Z,1995
2016-05-21T08:01:33.633Z,2015
2016-05-21T08:02:33.480Z,2125
2016-05-21T08:03:33.669Z,2340
2016-05-21T08:04:33.688Z,2360
2016-05-21T08:05:33.722Z,2630
2016-05-21T08:06:33.428Z,1550
2016-05-21T08:07:33.758Z,2725
2016-05-21T08:08:33.777Z,2895
2016-05-21T08:09:33.639Z,2940
2016-05-21T08:10:33.657Z,2930
2016-05-21T08:11:34.363Z,1055
2016-05-21T08:12:33.850Z,780
2016-05-21T08:13:33.743Z,2670
2016-05-21T08:14:33.747Z,2330
2016-05-21T08:15:33.764Z,2450
2016-05-21T08:16:34.158Z,2175
2016-05-21T08:17:33.957Z,1970
2016-05-21T08:18:36.335Z,2130
2016-05-21T08:19:34.760Z,2110
2016-05-21T08:20:35.090Z,2165
2016-05-21T08:21:35.312Z,2155
2016-05-21T08:22:34.721Z,2115
2016-05-21T08:23:34.223Z,1635
2016-05-21T08:24:33.789Z,1165
2016-05-21T08:25:34.135Z,1270
2016-05-21T08:26:34.715Z,1165
2016-05-21T08:27:36.797Z,1655
2016-05-21T08:28:48.737Z,1920
2016-05-21T08:29:35.803Z,905
2016-05-21T08:30:34.633Z,670
2016-05-21T08:31:34.542Z,1925
2016-05-21T08:32:34.903Z,1930
2016-05-21T08:33:36.969Z,1970
2016-05-21T08:34:35.956Z,2010
2016-05-21T08:35:35.615Z,2020
2016-05-21T08:36:34.197Z,2000
2016-05-21T08:37:34.667Z,2050
2016-05-21T08:38:35.389Z,2080
2016-05-21T08:39:34.891Z,2105
2016-05-21T08:40:34.503Z,2145
2016-05-21T08:41:34.475Z,1965
2016-05-21T08:42:34.852Z,2105
2016-05-21T08:43:34.668Z,2080
2016-05-21T08:44:34.499Z,1930
2016-05-21T08:45:35.563Z,1940
2016-05-21T08:46:35.301Z,1335
2016-05-21T08:47:34.538Z,715
2016-05-21T08:48:34.572Z,595
2016-05-21T08:49:34.449Z,575
2016-05-21T08:50:37.593Z,560
2016-05-21T08:51:34.314Z,550
2016-05-21T08:52:34.645Z,550
2016-05-21T08:53:34.351Z,550
2016-05-21T08:54:34.666Z,550
2016-05-21T08:55:34.528Z,550
2016-05-21T08:56:34.984Z,550
2016-05-21T08:57:34.721Z,545
2016-05-21T08:58:34.568Z,535
2016-05-21T08:59:34.601Z,560
2016-05-21T09:00:34.761Z,585
2016-05-21T09:01:34.778Z,580
2016-05-21T09:02:34.798Z,630
2016-05-21T09:03:34.800Z,605
2016-05-21T09:04:34.833Z,590
2016-05-21T09:05:34.821Z,580
2016-05-21T09:06:34.839Z,600
2016-05-21T09:07:34.842Z,650
2016-05-21T09:08:34.861Z,730
2016-05-21T09:09:34.723Z,740
2016-05-21T09:10:34.897Z,745
2016-05-21T09:11:34.916Z,685
2016-05-21T09:12:34.902Z,635
2016-05-21T09:13:34.921Z,625
2016-05-21T09:14:34.924Z,610
2016-05-21T09:15:34.926Z,665
2016-05-21T09:16:34.944Z,715
2016-05-21T09:17:34.985Z,745
2016-05-21T09:18:35.024Z,770
2016-05-21T09:19:34.891Z,745
2016-05-21T09:20:35.071Z,720
2016-05-21T09:21:34.955Z,675
2016-05-21T09:22:34.979Z,665
2016-05-21T09:23:35.006Z,640
2016-05-21T09:24:35.158Z,620
2016-05-21T09:25:35.183Z,610
2016-05-21T09:26:35.240Z,650
2016-05-21T09:27:35.198Z,645
2016-05-21T09:28:35.235Z,600
2016-05-21T09:29:35.069Z,580
2016-05-21T09:30:35.089Z,605
2016-05-21T09:31:35.267Z,610
2016-05-21T09:32:35.271Z,620
2016-05-21T09:33:35.290Z,625
2016-05-21T09:34:35.279Z,630
2016-05-21T09:35:35.142Z,635
2016-05-21T09:36:35.302Z,635
2016-05-21T09:37:50.445Z,620
2016-05-21T09:38:35.262Z,620
2016-05-21T09:39:35.326Z,610
2016-05-21T09:40:35.204Z,605
2016-05-21T09:41:36.646Z,595
2016-05-21T09:42:35.305Z,570
2016-05-21T09:43:36.073Z,545
2016-05-21T09:44:35.419Z,525
2016-05-21T09:45:35.234Z,530
2016-05-21T09:46:38.065Z,555
2016-05-21T09:47:50.303Z,540
2016-05-21T09:48:35.884Z,550
2016-05-21T09:49:49.447Z,570
2016-05-21T09:50:49.326Z,560
2016-05-21T09:51:50.438Z,590
2016-05-21T09:52:37.972Z,625
2016-05-21T09:53:35.318Z,645
2016-05-21T09:54:35.336Z,645
2016-05-21T09:55:35.949Z,630
2016-05-21T09:56:36.372Z,630
2016-05-21T09:57:35.204Z,610
2016-05-21T09:58:35.519Z,580
2016-05-21T09:59:35.397Z,545
2016-05-21T10:00:36.946Z,520
2016-05-21T10:01:36.105Z,520
2016-05-21T10:02:35.546Z,565
2016-05-21T10:03:36.096Z,625
2016-05-21T10:04:36.504Z,620
2016-05-21T10:05:36.382Z,570
2016-05-21T10:06:35.619Z,540
2016-05-21T10:07:35.590Z,515
2016-05-21T10:08:35.609Z,510
2016-05-21T10:09:35.440Z,510
2016-05-21T10:10:35.614Z,515
2016-05-21T10:11:35.695Z,535
2016-05-21T10:12:35.635Z,570
2016-05-21T10:13:35.637Z,580
2016-05-21T10:14:35.343Z,565
2016-05-21T10:15:35.658Z,555
2016-05-21T10:16:35.506Z,545
2016-05-21T10:17:35.523Z,530
2016-05-21T10:18:35.681Z,575
2016-05-21T10:19:35.684Z,590
2016-05-21T10:20:35.720Z,570
2016-05-21T10:21:35.722Z,595
2016-05-21T10:22:35.725Z,605
2016-05-21T10:23:35.415Z,595
2016-05-21T10:24:35.433Z,595
2016-05-21T10:25:35.747Z,600
2016-05-21T10:26:36.407Z,595
2016-05-21T10:27:35.769Z,565
2016-05-21T10:28:35.616Z,570
2016-05-21T10:29:35.774Z,570
2016-05-21T10:30:35.621Z,575
2016-05-21T10:31:35.811Z,565
2016-05-21T10:32:35.799Z,595
2016-05-21T10:33:35.816Z,655
2016-05-21T10:34:35.819Z,705
2016-05-21T10:35:35.838Z,690
2016-05-21T10:36:35.856Z,630
2016-05-21T10:37:35.858Z,580
2016-05-21T10:38:35.702Z,550
2016-05-21T10:39:35.880Z,535
2016-05-21T10:40:35.882Z,550
2016-05-21T10:41:36.103Z,560
2016-05-21T10:42:35.587Z,550
2016-05-21T10:43:35.887Z,540
2016-05-21T10:44:35.609Z,540
2016-05-21T10:45:35.909Z,550
2016-05-21T10:46:35.770Z,545
2016-05-21T10:47:35.945Z,510
2016-05-21T10:48:35.792Z,505
2016-05-21T10:49:35.654Z,480
2016-05-21T10:50:35.812Z,465
2016-05-21T10:51:35.987Z,445
2016-05-21T10:52:35.975Z,425
2016-05-21T10:53:35.993Z,420
2016-05-21T10:54:35.995Z,430
2016-05-21T10:55:36.217Z,460
2016-05-21T10:56:36.126Z,520
2016-05-21T10:57:36.035Z,565
2016-05-21T10:58:37.040Z,545
2016-05-21T10:59:35.572Z,505
2016-05-21T11:00:35.886Z,470
2016-05-21T11:01:36.405Z,460
2016-05-21T11:02:36.516Z,465
2016-05-21T11:03:35.911Z,475
2016-05-21T11:04:35.928Z,470
2016-05-21T11:05:50.121Z,465
2016-05-21T11:06:50.936Z,465
2016-05-21T11:07:35.952Z,460
2016-05-21T11:08:36.627Z,475
2016-05-21T11:09:36.582Z,490
2016-05-21T11:10:38.526Z,495
2016-05-21T11:11:38.341Z,505
2016-05-21T11:12:37.687Z,485
2016-05-21T11:13:36.515Z,455
2016-05-21T11:14:36.487Z,435
2016-05-21T11:15:36.646Z,420
2016-05-21T11:16:36.179Z,415
2016-05-21T11:17:36.182Z,415
2016-05-21T11:18:36.201Z,430
2016-05-21T11:20:37.553Z,460
2016-05-21T11:21:36.240Z,445
2016-05-21T11:22:37.495Z,420
2016-05-21T11:23:36.761Z,395
2016-05-21T11:24:37.092Z,390
2016-05-21T11:25:37.000Z,390
2016-05-21T11:26:36.066Z,395
2016-05-21T11:27:36.693Z,390
2016-05-21T11:28:35.978Z,390
2016-05-21T11:29:36.136Z,395
2016-05-21T11:30:36.295Z,410
2016-05-21T11:31:36.157Z,415
2016-05-21T11:32:36.003Z,415
2016-05-21T11:33:36.163Z,415
2016-05-21T11:34:36.338Z,430
2016-05-21T11:35:36.355Z,450
2016-05-21T11:36:36.358Z,465
2016-05-21T11:37:36.205Z,480
2016-05-21T11:38:36.208Z,475
2016-05-21T11:39:36.366Z,475
2016-05-21T11:40:36.385Z,475
2016-05-21T11:41:36.809Z,465
2016-05-21T11:42:36.405Z,445
2016-05-21T11:43:36.407Z,435
2016-05-21T11:44:36.411Z,435
2016-05-21T11:45:36.273Z,430
2016-05-21T11:46:36.276Z,445
2016-05-21T11:47:36.123Z,465
2016-05-21T11:48:36.438Z,455
2016-05-21T11:49:36.456Z,445
2016-05-21T11:50:36.443Z,455
2016-05-21T11:51:36.461Z,465
2016-05-21T11:52:36.479Z,495
2016-05-21T11:53:36.482Z,525
2016-05-21T11:54:36.500Z,555
2016-05-21T11:55:36.347Z,550
2016-05-21T11:56:36.818Z,530
2016-05-21T11:57:38.855Z,520
2016-05-21T11:58:36.370Z,495
2016-05-21T11:59:36.389Z,475
2016-05-21T12:00:36.375Z,465
2016-05-21T12:01:37.160Z,455
2016-05-21T12:02:38.884Z,460
2016-05-21T12:03:39.106Z,455
2016-05-21T12:04:36.559Z,455
2016-05-21T12:08:38.163Z,505
2016-05-21T12:09:36.619Z,515
2016-05-21T12:10:36.481Z,520
2016-05-21T12:11:37.280Z,535
2016-05-21T12:12:36.330Z,545
2016-05-21T12:15:36.916Z,545
2016-05-21T12:16:38.263Z,535
2016-05-21T12:17:36.671Z,525
2016-05-21T12:18:36.534Z,525
2016-05-21T12:19:36.990Z,520
2016-05-21T12:20:37.007Z,525
2016-05-21T12:21:36.854Z,515
2016-05-21T12:22:36.420Z,515
2016-05-21T12:23:36.734Z,520
2016-05-21T12:24:51.318Z,520
2016-05-21T12:25:37.615Z,530
2016-05-21T12:26:37.727Z,535
2016-05-21T12:27:36.964Z,555
2016-05-21T12:28:39.389Z,575
2016-05-21T12:29:39.406Z,590
2016-05-21T12:30:38.191Z,595
2016-05-21T12:31:36.647Z,575
2016-05-21T12:32:37.181Z,565
2016-05-21T12:33:36.950Z,555
2016-05-21T12:34:36.842Z,545
2016-05-21T12:35:36.845Z,550
2016-05-21T12:36:36.863Z,550
2016-05-21T12:37:36.882Z,545
2016-05-21T12:40:37.358Z,585
2016-05-21T12:41:36.610Z,575
2016-05-21T12:42:37.536Z,570
2016-05-21T12:43:37.429Z,565
2016-05-21T12:44:37.369Z,565
2016-05-21T12:45:36.919Z,565
2016-05-21T12:46:36.952Z,550
2016-05-21T12:47:36.784Z,545
2016-05-21T12:48:36.629Z,545
2016-05-21T12:49:36.960Z,555
2016-05-21T12:51:37.795Z,595
2016-05-21T12:52:36.985Z,615
2016-05-21T12:53:37.003Z,630
2016-05-21T12:54:36.849Z,640
2016-05-21T12:55:37.023Z,650
2016-05-21T12:56:37.073Z,670
2016-05-21T12:57:37.514Z,670
2016-05-21T12:58:37.063Z,650
2016-05-21T12:59:36.894Z,640
2016-05-21T13:00:36.912Z,610
2016-05-21T13:01:37.072Z,555
2016-05-21T13:02:37.089Z,505
2016-05-21T13:03:36.936Z,470
2016-05-21T13:04:37.126Z,465
2016-05-21T13:05:37.113Z,465
2016-05-21T13:06:37.131Z,460
2016-05-21T13:07:37.133Z,435
2016-05-21T13:08:36.980Z,425
2016-05-21T13:09:36.999Z,410
2016-05-21T13:10:37.002Z,400
2016-05-21T13:11:38.208Z,390
2016-05-21T13:12:37.804Z,405
2016-05-21T13:13:37.025Z,425
2016-05-21T13:14:37.199Z,415
2016-05-21T13:15:37.078Z,400
2016-05-21T13:16:37.220Z,390
2016-05-21T13:17:37.239Z,385
2016-05-21T13:18:37.085Z,390
2016-05-21T13:19:37.245Z,405
2016-05-21T13:20:37.248Z,420
2016-05-21T13:21:37.265Z,415
2016-05-21T13:22:37.268Z,415
2016-05-21T13:23:37.287Z,425
2016-05-21T13:24:37.133Z,440
2016-05-21T13:25:37.307Z,435
2016-05-21T13:26:37.201Z,450
2016-05-21T13:27:37.391Z,465
2016-05-21T13:28:37.315Z,485
2016-05-21T13:29:37.350Z,495
2016-05-21T13:30:37.353Z,510
2016-05-21T13:31:37.199Z,510
2016-05-21T13:32:37.201Z,495
2016-05-21T13:33:40.219Z,475
2016-05-21T13:34:37.691Z,455
2016-05-21T13:35:37.897Z,440
2016-05-21T13:36:37.634Z,420
2016-05-21T13:37:37.419Z,415
2016-05-21T13:38:37.874Z,410
2016-05-21T13:39:37.424Z,405
2016-05-21T13:40:37.269Z,405
2016-05-21T13:41:38.055Z,405
2016-05-21T13:43:06.480Z,410
2016-05-21T13:43:37.465Z,415
2016-05-21T13:44:38.421Z,425
2016-05-21T13:45:37.330Z,435
2016-05-21T13:47:38.616Z,450
2016-05-21T13:48:39.994Z,450
2016-05-21T13:49:37.701Z,465
2016-05-21T13:50:38.031Z,485
2016-05-21T13:51:37.377Z,500
2016-05-21T13:52:38.146Z,520
2016-05-21T13:53:37.398Z,520
2016-05-21T13:54:37.496Z,510
2016-05-21T13:55:37.404Z,500
2016-05-21T13:56:38.812Z,495
2016-05-21T13:57:38.378Z,490
2016-05-21T13:58:37.475Z,500
2016-05-21T13:59:38.884Z,500
2016-05-21T14:00:38.589Z,485
2016-05-21T14:01:38.108Z,475
2016-05-21T14:02:37.642Z,470
2016-05-21T14:03:37.645Z,455
2016-05-21T14:04:37.506Z,440
2016-05-21T14:05:37.664Z,420
2016-05-21T14:06:37.542Z,395
2016-05-21T14:07:37.702Z,375
2016-05-21T14:08:37.688Z,365
2016-05-21T14:09:37.707Z,355